createdAt,value
2018-04-29T00:00:00.350Z,10.80
2018-04-29T00:01:00.247Z,11.70
2018-04-29T00:02:00.157Z,10.80
2018-04-29T00:03:00.052Z,10.90
2018-04-29T00:03:59.962Z,9.90
2018-04-29T00:04:59.858Z,10.60
2018-04-29T00:05:59.766Z,10.50
2018-04-29T00:06:59.678Z,11.10
2018-04-29T00:07:59.572Z,9.20
2018-04-29T00:08:59.481Z,10.90
2018-04-29T00:09:59.381Z,9.90
2018-04-29T00:10:59.288Z,12.80
2018-04-29T00:11:59.224Z,9.70
2018-04-29T00:12:59.107Z,9.40
2018-04-29T00:13:58.990Z,10.20
2018-04-29T00:14:58.900Z,9.80
2018-04-29T00:15:58.807Z,9.40
2018-04-29T00:16:58.705Z,11.70
2018-04-29T00:17:58.615Z,11.90
2018-04-29T00:18:58.515Z,10.50
2018-04-29T00:19:58.482Z,9.70
2018-04-29T00:20:58.316Z,11.20
2018-04-29T00:21:58.227Z,11.80
2018-04-29T00:22:58.123Z,9.40
2018-04-29T00:23:58.031Z,12.10
2018-04-29T00:24:57.929Z,10.80
2018-04-29T00:25:57.841Z,11.20
2018-04-29T00:26:57.736Z,10.90
2018-04-29T00:27:57.644Z,12.00
2018-04-29T00:28:57.553Z,9.00
2018-04-29T00:29:57.449Z,10.20
2018-04-29T00:30:57.358Z,8.90
2018-04-29T00:31:57.256Z,9.10
2018-04-29T00:32:57.173Z,7.70
2018-04-29T00:33:57.062Z,11.00
2018-04-29T00:34:56.970Z,10.40
2018-04-29T00:35:56.867Z,13.30
2018-04-29T00:36:56.776Z,12.50
2018-04-29T00:37:56.684Z,15.50
2018-04-29T00:38:56.583Z,9.70
2018-04-29T00:39:56.491Z,12.40
2018-04-29T00:40:56.388Z,11.20
2018-04-29T00:41:56.297Z,12.30
2018-04-29T00:42:56.193Z,10.80
2018-04-29T00:43:56.104Z,9.40
2018-04-29T00:44:56.000Z,10.50
2018-04-29T00:45:55.910Z,10.60
2018-04-29T00:46:55.818Z,10.40
2018-04-29T00:47:55.719Z,10.50
2018-04-29T00:48:55.624Z,10.40
2018-04-29T00:49:55.520Z,11.00
2018-04-29T00:50:55.494Z,8.50
2018-04-29T00:51:55.327Z,10.50
2018-04-29T00:52:55.237Z,11.40
2018-04-29T00:53:55.133Z,9.70
2018-04-29T00:54:55.042Z,12.50
2018-04-29T00:55:54.963Z,10.60
2018-04-29T00:56:54.847Z,10.40
2018-04-29T00:57:54.758Z,9.90
2018-04-29T00:58:54.654Z,10.90
2018-04-29T00:59:54.565Z,10.50
2018-04-29T01:00:54.460Z,12.10
2018-04-29T01:01:54.369Z,11.30
2018-04-29T01:02:54.265Z,11.10
2018-04-29T01:03:54.175Z,9.90
2018-04-29T01:04:54.070Z,9.40
2018-04-29T01:05:53.984Z,13.00
2018-04-29T01:06:53.877Z,11.70
2018-04-29T01:07:53.786Z,14.00
2018-04-29T01:08:53.682Z,12.00
2018-04-29T01:09:53.593Z,10.40
2018-04-29T01:10:53.489Z,11.40
2018-04-29T01:11:53.397Z,10.90
2018-04-29T01:12:53.295Z,9.50
2018-04-29T01:13:53.204Z,12.20
2018-04-29T01:14:53.112Z,12.20
2018-04-29T01:15:53.009Z,11.70
2018-04-29T01:16:52.907Z,12.30
2018-04-29T01:17:52.815Z,9.80
2018-04-29T01:18:52.724Z,11.60
2018-04-29T01:19:52.620Z,8.70
2018-04-29T01:20:52.769Z,9.60
2018-04-29T01:21:52.427Z,11.50
2018-04-29T01:22:52.352Z,11.10
2018-04-29T01:23:52.233Z,11.50
2018-04-29T01:24:52.131Z,12.60
2018-04-29T01:25:52.041Z,11.30
2018-04-29T01:26:51.947Z,10.90
2018-04-29T01:27:51.844Z,11.60
2018-04-29T01:28:51.742Z,13.30
2018-04-29T01:29:51.651Z,13.50
2018-04-29T01:30:51.559Z,12.20
2018-04-29T01:31:51.456Z,10.10
2018-04-29T01:32:51.354Z,11.50
2018-04-29T01:33:51.262Z,10.90
2018-04-29T01:34:51.172Z,12.20
2018-04-29T01:35:51.068Z,10.70
2018-04-29T01:36:50.966Z,15.20
2018-04-29T01:37:50.874Z,14.30
2018-04-29T01:38:50.782Z,12.20
2018-04-29T01:39:50.679Z,11.10
2018-04-29T01:40:50.590Z,11.80
2018-04-29T01:41:50.486Z,12.80
2018-04-29T01:42:50.394Z,10.30
2018-04-29T01:43:50.291Z,13.00
2018-04-29T01:44:50.201Z,10.10
2018-04-29T01:45:50.098Z,12.00
2018-04-29T01:46:50.011Z,10.80
2018-04-29T01:47:49.916Z,11.20
2018-04-29T01:48:49.813Z,11.70
2018-04-29T01:49:49.711Z,10.50
2018-04-29T01:50:49.618Z,11.20
2018-04-29T01:51:49.514Z,9.30
2018-04-29T01:52:49.425Z,10.50
2018-04-29T01:53:49.324Z,11.20
2018-04-29T01:54:49.231Z,9.80
2018-04-29T01:55:49.127Z,9.10
2018-04-29T01:56:49.037Z,10.70
2018-04-29T01:57:48.938Z,10.10
2018-04-29T01:58:48.841Z,12.60
2018-04-29T01:59:48.743Z,12.60
2018-04-29T02:00:48.949Z,14.00
2018-04-29T02:01:48.546Z,10.50
2018-04-29T02:02:48.453Z,11.80
2018-04-29T02:03:48.351Z,10.20
2018-04-29T02:04:48.261Z,14.10
2018-04-29T02:05:48.157Z,11.70
2018-04-29T02:06:48.065Z,13.00
2018-04-29T02:07:47.975Z,12.00
2018-04-29T02:08:47.874Z,10.60
2018-04-29T02:09:47.780Z,12.60
2018-04-29T02:10:47.678Z,12.00
2018-04-29T02:11:47.587Z,14.40
2018-04-29T02:12:47.484Z,10.00
2018-04-29T02:13:47.392Z,11.70
2018-04-29T02:14:47.288Z,12.60
2018-04-29T02:15:47.205Z,9.40
2018-04-29T02:16:47.098Z,12.20
2018-04-29T02:17:47.004Z,12.50
2018-04-29T02:18:46.901Z,11.00
2018-04-29T02:19:46.812Z,10.00
2018-04-29T02:20:46.957Z,13.70
2018-04-29T02:21:46.616Z,13.50
2018-04-29T02:22:46.515Z,10.50
2018-04-29T02:23:46.425Z,11.80
2018-04-29T02:24:46.323Z,11.90
2018-04-29T02:25:46.228Z,9.90
2018-04-29T02:26:46.126Z,10.50
2018-04-29T02:27:46.034Z,14.20
2018-04-29T02:28:45.931Z,12.20
2018-04-29T02:29:45.839Z,12.90
2018-04-29T02:30:45.741Z,13.30
2018-04-29T02:31:45.646Z,12.30
2018-04-29T02:32:45.542Z,13.30
2018-04-29T02:33:45.454Z,12.10
2018-04-29T02:34:45.348Z,13.40
2018-04-29T02:35:45.259Z,10.30
2018-04-29T02:36:45.156Z,10.90
2018-04-29T02:37:45.077Z,11.70
2018-04-29T02:38:44.960Z,11.50
2018-04-29T02:39:44.871Z,12.60
2018-04-29T02:40:44.766Z,15.50
2018-04-29T02:41:44.664Z,11.90
2018-04-29T02:42:44.573Z,10.90
2018-04-29T02:43:44.473Z,11.90
2018-04-29T02:44:44.380Z,10.80
2018-04-29T02:45:44.275Z,12.10
2018-04-29T02:46:44.183Z,10.30
2018-04-29T02:47:44.081Z,10.20
2018-04-29T02:48:43.991Z,12.30
2018-04-29T02:49:43.887Z,11.00
2018-04-29T02:50:43.798Z,11.30
2018-04-29T02:51:43.693Z,12.60
2018-04-29T02:52:43.603Z,10.70
2018-04-29T02:53:43.498Z,12.50
2018-04-29T02:54:43.407Z,11.70
2018-04-29T02:55:43.303Z,13.50
2018-04-29T02:56:43.214Z,11.00
2018-04-29T02:57:43.110Z,10.60
2018-04-29T02:58:43.019Z,11.90
2018-04-29T02:59:42.916Z,10.20
2018-04-29T03:00:43.127Z,10.40
2018-04-29T03:01:42.722Z,13.10
2018-04-29T03:02:42.631Z,14.00
2018-04-29T03:03:42.533Z,11.80
2018-04-29T03:04:42.425Z,9.50
2018-04-29T03:05:42.334Z,13.20
2018-04-29T03:06:42.231Z,12.10
2018-04-29T03:07:42.138Z,9.40
2018-04-29T03:08:42.036Z,14.90
2018-04-29T03:09:41.945Z,10.30
2018-04-29T03:10:41.843Z,11.70
2018-04-29T03:11:41.751Z,11.50
2018-04-29T03:12:41.648Z,12.20
2018-04-29T03:13:41.557Z,11.90
2018-04-29T03:14:41.454Z,12.90
2018-04-29T03:15:41.363Z,11.90
2018-04-29T03:16:41.259Z,12.50
2018-04-29T03:17:41.169Z,14.80
2018-04-29T03:18:41.065Z,12.30
2018-04-29T03:19:40.974Z,11.20
2018-04-29T03:20:40.871Z,12.90
2018-04-29T03:21:40.780Z,11.50
2018-04-29T03:22:40.678Z,12.60
2018-04-29T03:23:40.586Z,10.60
2018-04-29T03:24:40.496Z,12.70
2018-04-29T03:25:40.393Z,9.70
2018-04-29T03:26:40.289Z,12.50
2018-04-29T03:27:40.199Z,12.90
2018-04-29T03:28:40.098Z,13.10
2018-04-29T03:29:39.991Z,12.40
2018-04-29T03:30:39.901Z,13.40
2018-04-29T03:31:39.799Z,12.50
2018-04-29T03:32:39.706Z,14.00
2018-04-29T03:33:39.603Z,10.80
2018-04-29T03:34:39.512Z,12.90
2018-04-29T03:35:39.409Z,14.60
2018-04-29T03:36:39.317Z,15.80
2018-04-29T03:37:39.216Z,12.60
2018-04-29T03:38:39.112Z,14.70
2018-04-29T03:39:39.021Z,11.50
2018-04-29T03:40:39.167Z,12.30
2018-04-29T03:41:38.825Z,12.80
2018-04-29T03:42:38.736Z,11.40
2018-04-29T03:43:38.633Z,11.30
2018-04-29T03:44:38.529Z,11.60
2018-04-29T03:45:38.439Z,12.60
2018-04-29T03:46:38.347Z,12.60
2018-04-29T03:47:38.232Z,13.40
2018-04-29T03:48:38.141Z,14.50
2018-04-29T03:49:38.038Z,11.40
2018-04-29T03:50:37.945Z,13.60
2018-04-29T03:51:37.852Z,12.30
2018-04-29T03:52:37.753Z,15.40
2018-04-29T03:53:37.649Z,11.30
2018-04-29T03:54:37.545Z,16.30
2018-04-29T03:55:37.454Z,14.10
2018-04-29T03:56:37.350Z,14.20
2018-04-29T03:57:37.262Z,13.60
2018-04-29T03:58:37.158Z,17.50
2018-04-29T03:59:37.079Z,12.60
2018-04-29T04:00:36.963Z,18.60
2018-04-29T04:01:36.860Z,13.00
2018-04-29T04:02:36.832Z,15.30
2018-04-29T04:03:36.666Z,12.90
2018-04-29T04:04:36.575Z,14.30
2018-04-29T04:05:36.471Z,14.80
2018-04-29T04:06:36.369Z,12.60
2018-04-29T04:07:36.278Z,12.50
2018-04-29T04:08:36.175Z,13.50
2018-04-29T04:09:36.085Z,13.20
2018-04-29T04:10:35.979Z,12.40
2018-04-29T04:11:35.889Z,12.70
2018-04-29T04:12:35.790Z,11.60
2018-04-29T04:13:35.684Z,12.20
2018-04-29T04:14:35.591Z,14.10
2018-04-29T04:15:35.488Z,17.30
2018-04-29T04:16:35.398Z,12.20
2018-04-29T04:17:35.294Z,12.20
2018-04-29T04:18:35.204Z,12.80
2018-04-29T04:19:35.100Z,11.00
2018-04-29T04:20:34.998Z,12.30
2018-04-29T04:21:34.906Z,11.60
2018-04-29T04:22:34.803Z,13.30
2018-04-29T04:23:34.711Z,11.30
2018-04-29T04:24:34.611Z,11.80
2018-04-29T04:25:34.518Z,12.10
2018-04-29T04:26:34.423Z,14.00
2018-04-29T04:27:34.324Z,13.20
2018-04-29T04:28:34.220Z,10.70
2018-04-29T04:29:34.119Z,12.60
2018-04-29T04:30:34.027Z,11.20
2018-04-29T04:31:33.923Z,13.40
2018-04-29T04:32:33.832Z,10.10
2018-04-29T04:33:33.728Z,11.90
2018-04-29T04:34:33.638Z,10.60
2018-04-29T04:35:33.836Z,10.10
2018-04-29T04:36:33.443Z,11.20
2018-04-29T04:37:33.341Z,12.90
2018-04-29T04:38:33.254Z,13.60
2018-04-29T04:39:33.149Z,12.30
2018-04-29T04:40:33.055Z,13.40
2018-04-29T04:41:32.952Z,12.40
2018-04-29T04:42:32.862Z,13.70
2018-04-29T04:43:32.758Z,11.50
2018-04-29T04:44:32.655Z,11.20
2018-04-29T04:45:32.564Z,12.30
2018-04-29T04:46:32.460Z,10.70
2018-04-29T04:47:32.370Z,12.80
2018-04-29T04:48:32.267Z,11.50
2018-04-29T04:49:32.175Z,11.40
2018-04-29T04:50:32.147Z,14.30
2018-04-29T04:51:31.982Z,13.30
2018-04-29T04:52:31.878Z,11.70
2018-04-29T04:53:31.787Z,11.50
2018-04-29T04:54:31.683Z,13.30
2018-04-29T04:55:31.593Z,12.30
2018-04-29T04:56:31.490Z,14.10
2018-04-29T04:57:31.399Z,14.20
2018-04-29T04:58:31.296Z,12.60
2018-04-29T04:59:31.205Z,10.90
2018-04-29T05:00:31.102Z,11.80
2018-04-29T05:01:31.010Z,11.00
2018-04-29T05:02:30.907Z,13.10
2018-04-29T05:03:30.819Z,12.30
2018-04-29T05:04:30.713Z,9.80
2018-04-29T05:05:30.621Z,11.20
2018-04-29T05:06:30.518Z,10.70
2018-04-29T05:07:30.428Z,12.40
2018-04-29T05:08:30.326Z,15.00
2018-04-29T05:09:30.246Z,12.30
2018-04-29T05:10:30.129Z,11.90
2018-04-29T05:11:30.041Z,10.10
2018-04-29T05:12:29.940Z,10.90
2018-04-29T05:13:29.846Z,10.20
2018-04-29T05:14:29.747Z,9.50
2018-04-29T05:15:29.652Z,10.90
2018-04-29T05:16:29.561Z,9.60
2018-04-29T05:17:29.462Z,9.40
2018-04-29T05:18:29.367Z,9.70
2018-04-29T05:19:29.275Z,8.90
2018-04-29T05:20:29.173Z,9.50
2018-04-29T05:21:29.083Z,10.70
2018-04-29T05:22:28.982Z,13.10
2018-04-29T05:23:28.887Z,11.20
2018-04-29T05:24:28.797Z,11.50
2018-04-29T05:25:28.704Z,10.40
2018-04-29T05:26:28.606Z,8.00
2018-04-29T05:27:28.513Z,8.70
2018-04-29T05:28:28.421Z,8.60
2018-04-29T05:29:28.321Z,11.30
2018-04-29T05:30:28.228Z,11.20
2018-04-29T05:31:28.136Z,11.60
2018-04-29T05:32:28.046Z,13.90
2018-04-29T05:33:27.954Z,10.80
2018-04-29T05:34:27.855Z,9.70
2018-04-29T05:35:27.776Z,10.90
2018-04-29T05:36:27.683Z,11.20
2018-04-29T05:37:27.579Z,13.20
2018-04-29T05:38:27.488Z,11.70
2018-04-29T05:39:27.398Z,9.80
2018-04-29T05:40:27.336Z,10.50
2018-04-29T05:41:27.223Z,11.70
2018-04-29T05:42:27.124Z,9.70
2018-04-29T05:43:27.034Z,9.80
2018-04-29T05:44:26.931Z,11.00
2018-04-29T05:45:26.843Z,9.90
2018-04-29T05:46:26.750Z,11.30
2018-04-29T05:47:26.659Z,11.90
2018-04-29T05:48:26.568Z,10.60
2018-04-29T05:49:26.478Z,10.60
2018-04-29T05:50:26.388Z,10.50
2018-04-29T05:51:26.299Z,11.70
2018-04-29T05:52:26.210Z,11.70
2018-04-29T05:53:26.121Z,11.80
2018-04-29T05:54:26.036Z,10.10
2018-04-29T05:55:25.949Z,12.40
2018-04-29T05:56:25.854Z,13.60
2018-04-29T05:57:25.763Z,9.80
2018-04-29T05:58:25.672Z,13.30
2018-04-29T05:59:25.583Z,11.80
2018-04-29T06:00:25.551Z,11.00
2018-04-29T06:01:25.400Z,13.60
2018-04-29T06:02:25.311Z,11.90
2018-04-29T06:03:25.232Z,15.60
2018-04-29T06:04:25.142Z,13.00
2018-04-29T06:05:25.049Z,15.60
2018-04-29T06:06:24.974Z,14.00
2018-04-29T06:07:24.868Z,13.20
2018-04-29T06:08:24.778Z,11.40
2018-04-29T06:09:24.688Z,14.10
2018-04-29T06:10:24.609Z,14.20
2018-04-29T06:11:24.517Z,16.00
2018-04-29T06:12:24.426Z,12.90
2018-04-29T06:13:24.339Z,14.10
2018-04-29T06:14:24.245Z,12.90
2018-04-29T06:15:24.154Z,13.20
2018-04-29T06:16:24.063Z,14.60
2018-04-29T06:17:23.973Z,12.00
2018-04-29T06:18:23.882Z,15.80
2018-04-29T06:19:23.806Z,13.40
2018-04-29T06:20:23.778Z,11.30
2018-04-29T06:21:23.621Z,12.00
2018-04-29T06:22:23.531Z,11.00
2018-04-29T06:23:23.440Z,13.70
2018-04-29T06:24:23.349Z,13.90
2018-04-29T06:25:23.272Z,13.60
2018-04-29T06:26:23.180Z,11.50
2018-04-29T06:27:23.090Z,12.80
2018-04-29T06:28:22.999Z,11.30
2018-04-29T06:29:22.907Z,16.60
2018-04-29T06:30:22.833Z,13.90
2018-04-29T06:31:22.737Z,13.10
2018-04-29T06:32:22.648Z,14.90
2018-04-29T06:33:22.557Z,11.40
2018-04-29T06:34:22.478Z,11.30
2018-04-29T06:35:22.387Z,14.20
2018-04-29T06:36:22.296Z,13.00
2018-04-29T06:37:22.206Z,16.60
2018-04-29T06:38:22.117Z,14.80
2018-04-29T06:39:22.037Z,15.80
2018-04-29T06:40:22.197Z,10.30
2018-04-29T06:41:21.855Z,13.00
2018-04-29T06:42:21.776Z,11.90
2018-04-29T06:43:21.686Z,15.30
2018-04-29T06:44:21.596Z,13.30
2018-04-29T06:45:21.505Z,13.50
2018-04-29T06:46:21.426Z,10.20
2018-04-29T06:47:21.335Z,11.70
2018-04-29T06:48:21.248Z,13.20
2018-04-29T06:49:21.154Z,11.80
2018-04-29T06:50:21.076Z,11.80
2018-04-29T06:51:20.984Z,12.20
2018-04-29T06:52:20.893Z,12.50
2018-04-29T06:53:20.819Z,11.10
2018-04-29T06:54:20.725Z,13.20
2018-04-29T06:55:20.634Z,13.20
2018-04-29T06:56:20.544Z,10.90
2018-04-29T06:57:20.466Z,12.40
2018-04-29T06:58:20.374Z,9.10
2018-04-29T06:59:20.283Z,10.90
2018-04-29T07:00:20.205Z,10.20
2018-04-29T07:01:20.116Z,10.50
2018-04-29T07:02:20.023Z,11.30
2018-04-29T07:03:19.932Z,8.60
2018-04-29T07:04:19.844Z,8.90
2018-04-29T07:05:19.764Z,9.70
2018-04-29T07:06:19.672Z,9.20
2018-04-29T07:07:19.582Z,9.60
2018-04-29T07:08:19.490Z,8.90
2018-04-29T07:09:19.401Z,9.40
2018-04-29T07:10:19.323Z,12.60
2018-04-29T07:11:19.235Z,9.40
2018-04-29T07:12:19.141Z,10.20
2018-04-29T07:13:19.050Z,9.70
2018-04-29T07:14:18.960Z,10.10
2018-04-29T07:15:18.868Z,10.10
2018-04-29T07:16:18.777Z,7.90
2018-04-29T07:17:18.686Z,10.00
2018-04-29T07:18:18.609Z,10.30
2018-04-29T07:19:18.520Z,9.00
2018-04-29T07:20:18.426Z,12.00
2018-04-29T07:21:18.336Z,11.70
2018-04-29T07:22:18.245Z,13.20
2018-04-29T07:23:18.155Z,11.40
2018-04-29T07:24:18.063Z,8.70
2018-04-29T07:25:17.974Z,9.70
2018-04-29T07:26:17.881Z,7.40
2018-04-29T07:27:17.790Z,6.90
2018-04-29T07:28:17.699Z,8.90
2018-04-29T07:29:17.610Z,10.20
2018-04-29T07:30:17.531Z,7.50
2018-04-29T07:31:17.440Z,8.70
2018-04-29T07:32:17.350Z,9.10
2018-04-29T07:33:17.259Z,8.50
2018-04-29T07:34:17.169Z,9.70
2018-04-29T07:35:17.080Z,9.70
2018-04-29T07:36:16.986Z,6.30
2018-04-29T07:37:16.895Z,10.50
2018-04-29T07:38:16.805Z,9.10
2018-04-29T07:39:16.714Z,9.20
2018-04-29T07:40:16.635Z,7.40
2018-04-29T07:41:16.546Z,10.30
2018-04-29T07:42:16.454Z,9.00
2018-04-29T07:43:16.364Z,6.90
2018-04-29T07:44:16.272Z,7.10
2018-04-29T07:45:16.181Z,7.50
2018-04-29T07:46:16.091Z,9.90
2018-04-29T07:47:16.001Z,9.00
2018-04-29T07:48:15.910Z,7.20
2018-04-29T07:49:15.829Z,9.60
2018-04-29T07:50:15.741Z,9.60
2018-04-29T07:51:15.649Z,8.90
2018-04-29T07:52:15.601Z,8.40
2018-04-29T07:53:15.467Z,9.00
2018-04-29T07:54:15.378Z,14.30
2018-04-29T07:55:15.285Z,9.10
2018-04-29T07:56:15.197Z,8.80
2018-04-29T07:57:15.118Z,7.90
2018-04-29T07:58:15.026Z,10.70
2018-04-29T07:59:14.936Z,6.60
2018-04-29T08:00:14.844Z,8.60
2018-04-29T08:01:14.754Z,8.90
2018-04-29T08:02:14.662Z,10.00
2018-04-29T08:03:14.583Z,11.20
2018-04-29T08:04:14.494Z,8.60
2018-04-29T08:05:14.404Z,9.10
2018-04-29T08:06:14.312Z,7.80
2018-04-29T08:07:14.221Z,8.30
2018-04-29T08:08:14.131Z,8.50
2018-04-29T08:09:14.041Z,9.70
2018-04-29T08:10:13.961Z,7.10
2018-04-29T08:11:13.870Z,11.20
2018-04-29T08:12:13.779Z,6.20
2018-04-29T08:13:13.691Z,8.10
2018-04-29T08:14:13.601Z,8.30
2018-04-29T08:15:13.507Z,7.30
2018-04-29T08:16:13.416Z,6.40
2018-04-29T08:17:13.326Z,7.30
2018-04-29T08:18:13.248Z,6.90
2018-04-29T08:19:13.156Z,7.90
2018-04-29T08:20:13.066Z,6.60
2018-04-29T08:21:12.974Z,7.20
2018-04-29T08:22:12.886Z,7.80
2018-04-29T08:23:12.792Z,6.00
2018-04-29T08:24:12.702Z,10.30
2018-04-29T08:25:12.612Z,11.00
2018-04-29T08:26:12.532Z,7.90
2018-04-29T08:27:12.443Z,8.70
2018-04-29T08:28:12.351Z,6.80
2018-04-29T08:29:12.261Z,6.70
2018-04-29T08:30:12.220Z,7.70
2018-04-29T08:31:12.080Z,9.20
2018-04-29T08:32:11.988Z,8.20
2018-04-29T08:33:11.898Z,6.60
2018-04-29T08:34:11.811Z,7.40
2018-04-29T08:35:11.716Z,8.30
2018-04-29T08:36:11.694Z,10.40
2018-04-29T08:37:11.546Z,7.50
2018-04-29T08:38:11.456Z,11.20
2018-04-29T08:39:11.365Z,9.20
2018-04-29T08:40:11.277Z,5.10
2018-04-29T08:41:11.183Z,8.30
2018-04-29T08:42:11.092Z,7.40
2018-04-29T08:43:11.086Z,7.30
2018-04-29T08:44:10.911Z,9.40
2018-04-29T08:45:10.826Z,6.20
2018-04-29T08:46:10.730Z,10.50
2018-04-29T08:47:10.639Z,8.70
2018-04-29T08:48:10.549Z,8.90
2018-04-29T08:49:10.457Z,7.50
2018-04-29T08:50:10.400Z,6.30
2018-04-29T08:51:10.275Z,6.40
2018-04-29T08:52:10.185Z,7.50
2018-04-29T08:53:10.093Z,6.70
2018-04-29T08:54:10.006Z,10.30
2018-04-29T08:55:09.912Z,9.00
2018-04-29T08:56:09.822Z,7.00
2018-04-29T08:57:09.744Z,7.50
2018-04-29T08:58:09.642Z,7.30
2018-04-29T08:59:09.548Z,5.70
2018-04-29T09:00:09.459Z,7.00
2018-04-29T09:01:09.369Z,5.30
2018-04-29T09:02:09.279Z,6.40
2018-04-29T09:03:09.186Z,8.00
2018-04-29T09:04:09.097Z,7.10
2018-04-29T09:05:09.004Z,5.00
2018-04-29T09:06:08.914Z,5.30
2018-04-29T09:07:08.826Z,6.30
2018-04-29T09:08:08.732Z,6.10
2018-04-29T09:09:08.644Z,5.90
2018-04-29T09:10:08.552Z,6.60
2018-04-29T09:11:08.459Z,7.90
2018-04-29T09:12:08.369Z,7.10
2018-04-29T09:13:08.280Z,7.70
2018-04-29T09:14:08.199Z,6.40
2018-04-29T09:15:08.113Z,7.40
2018-04-29T09:16:08.018Z,6.30
2018-04-29T09:17:07.941Z,9.20
2018-04-29T09:18:07.849Z,6.00
2018-04-29T09:19:07.770Z,5.50
2018-04-29T09:20:07.679Z,6.20
2018-04-29T09:21:07.593Z,5.40
2018-04-29T09:22:07.497Z,7.00
2018-04-29T09:23:07.419Z,7.80
2018-04-29T09:24:07.329Z,6.60
2018-04-29T09:25:07.253Z,5.50
2018-04-29T09:26:07.159Z,7.10
2018-04-29T09:27:07.081Z,7.80
2018-04-29T09:28:06.991Z,7.20
2018-04-29T09:29:06.900Z,7.60
2018-04-29T09:30:06.821Z,7.80
2018-04-29T09:31:06.731Z,5.60
2018-04-29T09:32:06.653Z,6.00
2018-04-29T09:33:06.561Z,7.50
2018-04-29T09:34:06.482Z,8.30
2018-04-29T09:35:06.404Z,7.10
2018-04-29T09:36:06.314Z,6.10
2018-04-29T09:37:06.257Z,9.20
2018-04-29T09:38:06.145Z,8.70
2018-04-29T09:39:06.066Z,10.60
2018-04-29T09:40:05.977Z,7.30
2018-04-29T09:41:05.899Z,8.00
2018-04-29T09:42:05.819Z,7.20
2018-04-29T09:43:05.727Z,8.30
2018-04-29T09:44:05.649Z,8.60
2018-04-29T09:45:05.571Z,10.80
2018-04-29T09:46:05.486Z,8.70
2018-04-29T09:47:05.402Z,6.10
2018-04-29T09:48:05.324Z,5.10
2018-04-29T09:49:05.237Z,8.00
2018-04-29T09:50:05.154Z,6.80
2018-04-29T09:51:05.076Z,7.80
2018-04-29T09:52:04.997Z,7.70
2018-04-29T09:53:04.907Z,6.60
2018-04-29T09:54:04.831Z,6.80
2018-04-29T09:55:04.750Z,9.00
2018-04-29T09:56:04.673Z,8.10
2018-04-29T09:57:04.580Z,6.50
2018-04-29T09:58:04.502Z,8.00
2018-04-29T09:59:04.423Z,8.70
2018-04-29T10:00:04.345Z,7.20
2018-04-29T10:01:04.337Z,6.10
2018-04-29T10:02:04.178Z,6.50
2018-04-29T10:03:04.100Z,7.90
2018-04-29T10:04:03.936Z,10.20
2018-04-29T10:05:03.931Z,7.30
2018-04-29T10:06:03.850Z,10.80
2018-04-29T10:07:03.773Z,11.20
2018-04-29T10:08:03.693Z,8.80
2018-04-29T10:09:03.621Z,7.30
2018-04-29T10:10:03.539Z,11.50
2018-04-29T10:11:03.448Z,8.40
2018-04-29T10:12:03.369Z,6.10
2018-04-29T10:13:03.294Z,7.40
2018-04-29T10:14:03.213Z,8.80
2018-04-29T10:15:03.136Z,7.00
2018-04-29T10:16:03.044Z,8.40
2018-04-29T10:17:02.964Z,9.50
2018-04-29T10:18:02.886Z,7.10
2018-04-29T10:19:02.821Z,8.00
2018-04-29T10:20:03.031Z,8.60
2018-04-29T10:21:02.650Z,7.00
2018-04-29T10:22:02.572Z,10.70
2018-04-29T10:23:02.495Z,7.00
2018-04-29T10:24:02.416Z,9.20
2018-04-29T10:25:02.327Z,9.30
2018-04-29T10:26:02.248Z,7.70
2018-04-29T10:27:02.171Z,9.10
2018-04-29T10:28:02.092Z,8.50
2018-04-29T10:29:02.016Z,7.70
2018-04-29T10:30:01.935Z,6.80
2018-04-29T10:31:01.856Z,9.00
2018-04-29T10:32:01.778Z,6.90
2018-04-29T10:33:01.739Z,10.50
2018-04-29T10:34:01.621Z,6.10
2018-04-29T10:35:01.543Z,7.60
2018-04-29T10:36:01.465Z,8.60
2018-04-29T10:37:01.387Z,5.30
2018-04-29T10:38:01.309Z,5.40
2018-04-29T10:39:01.218Z,8.60
2018-04-29T10:40:01.151Z,6.50
2018-04-29T10:41:01.067Z,7.20
2018-04-29T10:42:00.981Z,6.40
2018-04-29T10:43:00.903Z,6.50
2018-04-29T10:44:00.825Z,9.30
2018-04-29T10:45:00.747Z,7.30
2018-04-29T10:46:00.668Z,6.80
2018-04-29T10:47:00.585Z,8.00
2018-04-29T10:48:00.511Z,8.00
2018-04-29T10:49:00.433Z,6.20
2018-04-29T10:50:00.356Z,6.50
2018-04-29T10:51:00.276Z,8.00
2018-04-29T10:52:00.217Z,7.60
2018-04-29T10:53:00.120Z,9.00
2018-04-29T10:54:00.042Z,8.10
2018-04-29T10:54:59.963Z,7.40
2018-04-29T10:55:59.889Z,7.90
2018-04-29T10:56:59.807Z,8.70
2018-04-29T10:57:59.728Z,9.80
2018-04-29T10:58:59.650Z,7.90
2018-04-29T10:59:59.871Z,8.50
2018-04-29T11:00:59.500Z,9.00
2018-04-29T11:01:59.415Z,5.10
2018-04-29T11:02:59.338Z,5.40
2018-04-29T11:03:59.260Z,7.60
2018-04-29T11:04:59.197Z,6.20
2018-04-29T11:05:59.115Z,7.40
2018-04-29T11:06:59.037Z,8.00
2018-04-29T11:07:58.959Z,6.80
2018-04-29T11:08:58.880Z,7.40
2018-04-29T11:09:58.802Z,6.70
2018-04-29T11:10:58.724Z,6.30
2018-04-29T11:11:58.645Z,9.50
2018-04-29T11:12:58.567Z,8.60
2018-04-29T11:13:58.489Z,6.90
2018-04-29T11:14:58.410Z,6.70
2018-04-29T11:15:58.332Z,7.50
2018-04-29T11:16:58.254Z,6.40
2018-04-29T11:17:58.176Z,8.80
2018-04-29T11:18:58.096Z,8.50
2018-04-29T11:19:58.019Z,6.90
2018-04-29T11:20:57.949Z,6.70
2018-04-29T11:21:57.863Z,8.90
2018-04-29T11:22:57.784Z,7.60
2018-04-29T11:23:57.705Z,8.80
2018-04-29T11:24:57.686Z,7.20
2018-04-29T11:25:57.549Z,6.80
2018-04-29T11:26:57.471Z,12.10
2018-04-29T11:27:57.392Z,7.50
2018-04-29T11:28:57.302Z,8.80
2018-04-29T11:29:57.222Z,9.00
2018-04-29T11:30:57.144Z,7.40
2018-04-29T11:31:57.068Z,6.90
2018-04-29T11:32:56.987Z,8.80
2018-04-29T11:33:56.971Z,6.90
2018-04-29T11:34:56.821Z,6.40
2018-04-29T11:35:56.741Z,5.90
2018-04-29T11:36:56.662Z,6.00
2018-04-29T11:37:56.570Z,8.40
2018-04-29T11:38:56.492Z,8.30
2018-04-29T11:39:56.406Z,7.60
2018-04-29T11:40:56.324Z,7.20
2018-04-29T11:41:56.233Z,9.10
2018-04-29T11:42:56.156Z,7.50
2018-04-29T11:43:56.064Z,6.80
2018-04-29T11:44:55.985Z,7.30
2018-04-29T11:45:55.907Z,8.60
2018-04-29T11:46:55.828Z,5.00
2018-04-29T11:47:55.727Z,9.80
2018-04-29T11:48:55.635Z,8.00
2018-04-29T11:49:55.859Z,7.10
2018-04-29T11:50:55.465Z,8.10
2018-04-29T11:51:55.397Z,6.10
2018-04-29T11:52:55.296Z,8.30
2018-04-29T11:53:55.206Z,9.60
2018-04-29T11:54:55.116Z,6.30
2018-04-29T11:55:55.036Z,6.00
2018-04-29T11:56:54.949Z,6.20
2018-04-29T11:57:54.854Z,5.70
2018-04-29T11:58:54.765Z,8.00
2018-04-29T11:59:54.935Z,7.60
2018-04-29T12:00:54.594Z,7.20
2018-04-29T12:01:54.570Z,9.10
2018-04-29T12:02:54.412Z,6.20
2018-04-29T12:03:54.323Z,9.50
2018-04-29T12:04:54.244Z,7.80
2018-04-29T12:05:54.152Z,8.40
2018-04-29T12:06:54.068Z,9.00
2018-04-29T12:07:53.970Z,7.10
2018-04-29T12:08:53.880Z,8.10
2018-04-29T12:09:53.866Z,5.10
2018-04-29T12:10:53.712Z,6.20
2018-04-29T12:11:53.621Z,5.10
2018-04-29T12:12:53.531Z,8.30
2018-04-29T12:13:53.451Z,7.10
2018-04-29T12:14:53.361Z,6.20
2018-04-29T12:15:53.269Z,9.90
2018-04-29T12:16:53.183Z,8.10
2018-04-29T12:17:53.092Z,8.60
2018-04-29T12:18:53.014Z,5.40
2018-04-29T12:19:52.922Z,10.80
2018-04-29T12:20:52.828Z,5.90
2018-04-29T12:21:52.738Z,8.70
2018-04-29T12:22:52.659Z,7.80
2018-04-29T12:23:52.567Z,5.90
2018-04-29T12:24:52.477Z,4.10
2018-04-29T12:25:52.386Z,6.70
2018-04-29T12:26:52.298Z,7.30
2018-04-29T12:27:52.205Z,4.30
2018-04-29T12:28:52.126Z,5.60
2018-04-29T12:29:52.035Z,7.70
2018-04-29T12:30:51.944Z,5.90
2018-04-29T12:31:51.854Z,7.40
2018-04-29T12:32:51.763Z,8.30
2018-04-29T12:33:51.684Z,5.90
2018-04-29T12:34:51.594Z,7.00
2018-04-29T12:35:51.502Z,5.80
2018-04-29T12:36:51.413Z,6.80
2018-04-29T12:37:51.322Z,6.00
2018-04-29T12:38:51.231Z,6.30
2018-04-29T12:39:51.224Z,7.30
2018-04-29T12:40:51.061Z,5.80
2018-04-29T12:41:50.971Z,5.00
2018-04-29T12:42:50.879Z,7.70
2018-04-29T12:43:50.790Z,7.30
2018-04-29T12:44:50.698Z,5.70
2018-04-29T12:45:50.608Z,6.80
2018-04-29T12:46:50.529Z,6.20
2018-04-29T12:47:50.452Z,4.70
2018-04-29T12:48:50.348Z,5.80
2018-04-29T12:49:50.257Z,7.60
2018-04-29T12:50:50.178Z,4.90
2018-04-29T12:51:50.074Z,5.50
2018-04-29T12:52:49.985Z,5.30
2018-04-29T12:53:49.895Z,5.30
2018-04-29T12:54:49.816Z,7.20
2018-04-29T12:55:49.728Z,8.20
2018-04-29T12:56:49.633Z,9.40
2018-04-29T12:57:49.543Z,5.90
2018-04-29T12:58:49.451Z,6.20
2018-04-29T12:59:49.362Z,6.40
2018-04-29T13:00:49.272Z,7.90
2018-04-29T13:01:49.192Z,7.40
2018-04-29T13:02:49.101Z,6.10